createdAt,value
2018-12-04T00:00:51.665Z,84.32
2018-12-04T00:15:53.479Z,84.55
2018-12-04T00:30:50.383Z,84.01
2018-12-04T00:45:52.337Z,83.29
2018-12-04T01:00:50.772Z,84.04
2018-12-04T01:15:51.674Z,83.18
2018-12-04T01:30:50.639Z,82.49
2018-12-04T01:45:50.465Z,83.17
2018-12-04T02:00:50.848Z,82.76
2018-12-04T02:15:52.805Z,82.52
2018-12-04T02:30:51.713Z,82.32
2018-12-04T02:45:50.703Z,81.87
2018-12-04T03:00:50.968Z,81.74
2018-12-04T03:15:50.954Z,81.64
2018-12-04T03:30:51.415Z,81.58
2018-12-04T03:45:57.615Z,82.24
2018-12-04T04:00:52.998Z,80.66
2018-12-04T04:15:51.111Z,80.77
2018-12-04T04:30:51.425Z,80.85
2018-12-04T04:45:51.469Z,80.14
2018-12-04T05:00:52.323Z,80.02
2018-12-04T05:15:51.279Z,80.27
2018-12-04T05:30:50.745Z,80.34
2018-12-04T05:45:51.461Z,79.85
2018-12-04T06:00:53.232Z,79.80
2018-12-04T06:15:51.393Z,79.88
2018-12-04T06:30:50.718Z,80.09
2018-12-04T06:45:50.723Z,80.64
2018-12-04T07:00:50.198Z,79.85
2018-12-04T07:15:51.983Z,79.29
2018-12-04T07:30:50.899Z,80.07
2018-12-04T07:45:50.770Z,80.36
2018-12-04T08:00:50.996Z,80.20
2018-12-04T08:15:52.683Z,79.25
2018-12-04T08:30:51.025Z,77.52
2018-12-04T08:45:50.889Z,77.01
2018-12-04T09:00:53.289Z,76.96
2018-12-04T09:15:50.775Z,76.72
2018-12-04T09:30:51.223Z,77.35
2018-12-04T09:45:50.594Z,78.45
2018-12-04T10:00:51.097Z,77.09
2018-12-04T10:15:51.017Z,76.22
2018-12-04T10:30:56.502Z,75.50
2018-12-04T10:45:51.266Z,75.18
2018-12-04T11:00:56.663Z,75.25
2018-12-04T11:15:51.077Z,75.87
2018-12-04T11:30:51.931Z,75.34
2018-12-04T11:45:51.771Z,75.06
2018-12-04T12:00:51.491Z,74.74
2018-12-04T12:15:53.023Z,74.77
2018-12-04T12:30:52.582Z,75.96
2018-12-04T12:45:51.415Z,76.89
2018-12-04T13:00:51.488Z,76.77
2018-12-04T13:15:53.607Z,77.72
2018-12-04T13:30:50.801Z,77.29
2018-12-04T13:45:50.681Z,78.88
2018-12-04T14:00:52.625Z,78.67
2018-12-04T14:15:50.530Z,80.13
2018-12-04T14:30:50.896Z,81.14
2018-12-04T14:45:50.866Z,80.50
2018-12-04T15:00:51.409Z,80.43
2018-12-04T15:15:50.696Z,80.52
2018-12-04T15:30:51.114Z,81.66
2018-12-04T16:15:56.508Z,84.18
2018-12-04T16:30:53.823Z,84.04
2018-12-04T16:45:57.324Z,83.37
2018-12-04T17:30:51.518Z,83.30
2018-12-04T17:45:55.025Z,83.16
2018-12-04T18:00:51.389Z,82.57
2018-12-04T18:15:51.793Z,81.59
2018-12-04T18:30:53.311Z,81.47
2018-12-04T19:00:51.878Z,81.29
2018-12-04T19:15:53.641Z,81.22
2018-12-04T19:30:54.010Z,80.57
2018-12-04T20:00:54.526Z,81.92
2018-12-04T20:15:54.015Z,82.46
2018-12-04T20:30:51.174Z,83.84
2018-12-04T20:45:53.186Z,83.42
2018-12-04T21:00:50.882Z,82.65
2018-12-04T21:15:50.871Z,82.67
2018-12-04T21:30:55.877Z,82.73
2018-12-04T21:45:56.386Z,82.69
2018-12-04T22:00:54.221Z,82.25
2018-12-04T22:15:51.086Z,81.62
2018-12-04T22:30:51.394Z,81.27
2018-12-04T22:45:51.368Z,81.21
2018-12-04T23:00:50.891Z,81.17
2018-12-04T23:15:50.764Z,81.77
2018-12-04T23:30:50.588Z,81.54
2018-12-04T23:45:50.579Z,81.75
